createdAt,value
2022-11-14T00:00:55.215Z,100.00
2022-11-14T00:04:11.021Z,100.00
2022-11-14T00:07:26.246Z,100.00
2022-11-14T00:10:42.177Z,100.00
2022-11-14T00:13:58.263Z,100.00
2022-11-14T00:17:14.195Z,100.00
2022-11-14T00:20:30.073Z,100.00
2022-11-14T00:23:45.097Z,100.00
2022-11-14T00:27:01.309Z,100.00
2022-11-14T00:30:17.365Z,100.00
2022-11-14T00:33:33.147Z,100.00
2022-11-14T00:36:48.281Z,100.00
2022-11-14T00:40:04.689Z,100.00
2022-11-14T00:43:20.280Z,100.00
2022-11-14T00:46:36.338Z,100.00
2022-11-14T00:49:52.327Z,100.00
2022-11-14T00:53:08.169Z,100.00
2022-11-14T00:56:23.999Z,100.00
2022-11-14T00:59:39.233Z,100.00
2022-11-14T01:02:58.358Z,100.00
2022-11-14T01:06:15.828Z,100.00
2022-11-14T01:09:31.106Z,100.00
2022-11-14T01:12:47.217Z,100.00
2022-11-14T01:16:03.068Z,100.00
2022-11-14T01:19:18.308Z,100.00
2022-11-14T01:22:37.136Z,100.00
2022-11-14T01:25:52.937Z,100.00
2022-11-14T01:29:07.980Z,100.00
2022-11-14T01:32:23.176Z,100.00
2022-11-14T01:35:39.228Z,100.00
2022-11-14T01:38:55.391Z,100.00
2022-11-14T01:42:11.212Z,100.00
2022-11-14T01:45:45.871Z,100.00
2022-11-14T01:49:21.021Z,100.00
2022-11-14T01:52:37.617Z,100.00
2022-11-14T01:55:53.196Z,100.00
2022-11-14T01:59:11.620Z,100.00
2022-11-14T02:02:27.324Z,100.00
2022-11-14T02:05:43.291Z,100.00
2022-11-14T02:09:05.136Z,100.00
2022-11-14T02:12:20.229Z,100.00
2022-11-14T02:15:36.445Z,100.00
2022-11-14T02:18:52.150Z,100.00
2022-11-14T02:22:07.983Z,100.00
2022-11-14T02:25:24.081Z,100.00
2022-11-14T02:28:40.492Z,100.00
2022-11-14T02:31:56.218Z,100.00
2022-11-14T02:35:12.205Z,100.00
2022-11-14T02:38:28.627Z,100.00
2022-11-14T02:41:45.236Z,100.00
2022-11-14T02:45:01.177Z,100.00
2022-11-14T02:48:16.179Z,100.00
2022-11-14T02:51:32.217Z,100.00
2022-11-14T02:54:54.127Z,100.00
2022-11-14T02:58:10.138Z,100.00
2022-11-14T03:01:25.492Z,100.00
2022-11-14T03:04:41.344Z,100.00
2022-11-14T03:07:57.191Z,100.00
2022-11-14T03:11:13.287Z,100.00
2022-11-14T03:14:31.351Z,100.00
2022-11-14T03:17:47.407Z,100.00
2022-11-14T03:21:14.145Z,100.00
2022-11-14T03:24:30.121Z,100.00
2022-11-14T03:27:46.352Z,100.00
2022-11-14T03:31:02.354Z,100.00
2022-11-14T03:34:18.251Z,100.00
2022-11-14T03:37:34.248Z,100.00
2022-11-14T03:40:50.752Z,100.00
2022-11-14T03:44:06.230Z,100.00
2022-11-14T03:47:22.378Z,100.00
2022-11-14T03:50:38.470Z,100.00
2022-11-14T03:53:54.133Z,100.00
2022-11-14T03:57:09.378Z,100.00
2022-11-14T04:00:25.284Z,100.00
2022-11-14T04:03:40.300Z,100.00
2022-11-14T04:06:56.504Z,100.00
2022-11-14T04:10:12.377Z,100.00
2022-11-14T04:13:28.365Z,100.00
2022-11-14T04:16:44.228Z,100.00
2022-11-14T04:20:00.142Z,100.00
2022-11-14T04:23:16.210Z,100.00
2022-11-14T04:26:31.424Z,100.00
2022-11-14T04:29:47.385Z,100.00
2022-11-14T04:33:03.469Z,100.00
2022-11-14T04:36:19.175Z,100.00
2022-11-14T04:39:35.246Z,100.00
2022-11-14T04:42:51.453Z,100.00
2022-11-14T04:46:07.337Z,100.00
2022-11-14T04:49:23.518Z,100.00
2022-11-14T04:52:39.793Z,100.00
2022-11-14T04:55:55.732Z,100.00
2022-11-14T04:59:11.232Z,100.00
2022-11-14T05:02:27.448Z,100.00
2022-11-14T05:05:43.200Z,100.00
2022-11-14T05:08:59.048Z,100.00
2022-11-14T05:12:14.357Z,100.00
2022-11-14T05:15:30.446Z,100.00
2022-11-14T05:18:47.236Z,100.00
2022-11-14T05:22:03.102Z,100.00
2022-11-14T05:25:19.726Z,100.00
2022-11-14T05:28:35.202Z,100.00
2022-11-14T05:31:51.267Z,100.00
2022-11-14T05:35:07.802Z,100.00
2022-11-14T05:38:23.816Z,100.00
2022-11-14T05:41:39.569Z,100.00
2022-11-14T05:44:55.068Z,100.00
2022-11-14T05:48:11.657Z,100.00
2022-11-14T05:51:27.352Z,100.00
2022-11-14T05:54:43.797Z,100.00
2022-11-14T05:57:59.633Z,100.00
2022-11-14T06:01:17.751Z,100.00
2022-11-14T06:04:33.617Z,100.00
2022-11-14T06:07:56.800Z,100.00
2022-11-14T06:11:19.577Z,100.00
2022-11-14T06:14:35.227Z,100.00
2022-11-14T06:17:52.982Z,100.00
2022-11-14T06:21:12.763Z,100.00
2022-11-14T06:24:28.318Z,100.00
2022-11-14T06:27:44.634Z,100.00
2022-11-14T06:31:01.586Z,100.00
2022-11-14T06:34:17.087Z,100.00
2022-11-14T06:37:33.827Z,100.00
2022-11-14T06:40:50.520Z,100.00
2022-11-14T06:44:07.850Z,100.00
2022-11-14T06:47:23.545Z,100.00
2022-11-14T06:50:39.347Z,100.00
2022-11-14T06:53:54.449Z,100.00
2022-11-14T06:57:10.326Z,100.00
2022-11-14T07:00:26.700Z,100.00
2022-11-14T07:03:43.078Z,100.00
2022-11-14T07:06:58.487Z,100.00
2022-11-14T07:10:14.546Z,100.00
2022-11-14T07:13:31.443Z,100.00
2022-11-14T07:16:48.004Z,100.00
2022-11-14T07:20:03.850Z,100.00
2022-11-14T07:23:22.812Z,100.00
2022-11-14T07:26:39.523Z,100.00
2022-11-14T07:29:56.172Z,100.00
2022-11-14T07:33:11.392Z,100.00
2022-11-14T07:36:27.917Z,100.00
2022-11-14T07:39:43.419Z,100.00
2022-11-14T07:43:01.005Z,100.00
2022-11-14T07:46:17.786Z,100.00
2022-11-14T07:49:34.494Z,100.00
2022-11-14T07:52:54.017Z,100.00
2022-11-14T07:56:10.039Z,100.00
2022-11-14T07:59:25.795Z,100.00
2022-11-14T08:02:41.337Z,100.00
2022-11-14T08:06:07.970Z,100.00
2022-11-14T08:09:23.586Z,100.00
2022-11-14T08:12:40.091Z,100.00
2022-11-14T08:15:55.527Z,100.00
2022-11-14T08:19:11.228Z,100.00
2022-11-14T08:22:26.663Z,100.00
2022-11-14T08:25:42.573Z,100.00
2022-11-14T08:28:58.321Z,100.00
2022-11-14T08:32:15.593Z,100.00
2022-11-14T08:35:32.695Z,100.00
2022-11-14T08:38:51.359Z,100.00
2022-11-14T08:42:07.447Z,100.00
2022-11-14T08:45:23.457Z,100.00
2022-11-14T08:48:38.414Z,100.00
2022-11-14T08:51:53.970Z,100.00
2022-11-14T08:55:09.439Z,100.00
2022-11-14T08:58:28.950Z,100.00
2022-11-14T09:01:44.352Z,100.00
2022-11-14T09:05:00.799Z,100.00
2022-11-14T09:08:16.542Z,100.00
2022-11-14T09:11:32.186Z,100.00
2022-11-14T09:14:47.531Z,100.00
2022-11-14T09:18:03.686Z,100.00
2022-11-14T09:21:19.685Z,100.00
2022-11-14T09:24:35.584Z,100.00
2022-11-14T09:27:51.540Z,99.33
2022-11-14T09:31:08.653Z,96.79
2022-11-14T09:34:24.229Z,96.20
2022-11-14T09:37:40.728Z,94.31
2022-11-14T09:41:11.005Z,95.71
2022-11-14T09:44:26.672Z,95.77
2022-11-14T09:47:50.813Z,95.51
2022-11-14T09:51:08.250Z,95.11
2022-11-14T09:54:27.109Z,94.60
2022-11-14T09:57:44.170Z,91.73
2022-11-14T10:01:25.010Z,92.28
2022-11-14T10:05:12.486Z,91.73
2022-11-14T10:08:46.001Z,91.80
2022-11-14T10:12:13.351Z,89.81
2022-11-14T10:15:34.170Z,91.62
2022-11-14T10:19:42.390Z,90.03
2022-11-14T10:23:17.513Z,88.38
2022-11-14T10:26:35.483Z,87.77
2022-11-14T10:30:36.765Z,87.45
2022-11-14T10:34:01.762Z,86.68
2022-11-14T10:37:42.453Z,85.59
2022-11-14T10:41:02.707Z,86.44
2022-11-14T10:44:25.187Z,83.79
2022-11-14T10:47:41.882Z,83.88
2022-11-14T10:51:36.304Z,83.43
2022-11-14T10:54:56.450Z,82.03
2022-11-14T10:58:14.844Z,81.64
2022-11-14T11:01:37.044Z,80.68
2022-11-14T11:04:52.837Z,81.48
2022-11-14T11:08:42.558Z,80.83
2022-11-14T11:12:01.810Z,82.42
2022-11-14T11:15:25.082Z,82.82
2022-11-14T11:18:40.721Z,83.22
2022-11-14T11:21:56.630Z,81.27
2022-11-14T11:25:27.137Z,82.32
2022-11-14T11:28:42.878Z,82.32
2022-11-14T11:31:58.905Z,82.37
2022-11-14T11:35:16.260Z,81.38
2022-11-14T11:38:32.869Z,79.78
2022-11-14T11:45:24.788Z,78.09
2022-11-14T11:48:40.871Z,78.41
2022-11-14T11:51:57.092Z,78.48
2022-11-14T11:55:21.935Z,77.49
2022-11-14T11:58:50.455Z,73.90
2022-11-14T12:02:25.865Z,68.82
2022-11-14T12:06:16.574Z,71.74
2022-11-14T12:13:48.447Z,78.07
2022-11-14T12:17:39.001Z,77.75
2022-11-14T12:21:10.105Z,79.79
2022-11-14T12:24:53.193Z,77.28
2022-11-14T12:28:32.500Z,75.68
2022-11-14T12:31:47.725Z,77.13
2022-11-14T12:35:04.769Z,77.65
2022-11-14T12:38:21.177Z,72.63
2022-11-14T12:41:38.012Z,71.19
2022-11-14T12:44:53.979Z,74.29
2022-11-14T12:48:26.980Z,77.59
2022-11-14T12:51:45.560Z,79.13
2022-11-14T12:55:01.778Z,79.53
2022-11-14T12:59:15.120Z,80.40
2022-11-14T13:02:44.753Z,80.57
2022-11-14T13:06:04.715Z,76.69
2022-11-14T13:09:20.677Z,77.24
2022-11-14T13:12:55.275Z,79.12
2022-11-14T13:16:42.043Z,80.47
2022-11-14T13:20:16.486Z,81.30
2022-11-14T13:23:40.791Z,81.83
2022-11-14T13:27:16.807Z,81.25
2022-11-14T13:31:10.504Z,79.16
2022-11-14T13:34:33.488Z,77.51
2022-11-14T13:37:55.715Z,75.78
2022-11-14T13:41:47.468Z,75.52
2022-11-14T13:45:22.238Z,75.32
2022-11-14T13:48:48.533Z,76.60
2022-11-14T13:52:04.969Z,79.51
2022-11-14T13:55:38.369Z,81.29
2022-11-14T13:58:53.686Z,83.24
2022-11-14T14:02:26.120Z,83.48
2022-11-14T14:06:11.089Z,85.14
2022-11-14T14:09:33.629Z,83.85
2022-11-14T14:13:34.908Z,82.13
2022-11-14T14:17:10.279Z,81.32
2022-11-14T14:20:43.556Z,81.35
2022-11-14T14:24:21.323Z,81.84
2022-11-14T14:27:55.470Z,81.04
2022-11-14T14:31:12.699Z,80.88
2022-11-14T14:34:30.100Z,80.92
2022-11-14T14:37:50.818Z,80.63
2022-11-14T14:41:06.729Z,80.54
2022-11-14T14:44:24.086Z,81.41
2022-11-14T14:47:41.254Z,82.10
2022-11-14T14:50:57.995Z,83.62
2022-11-14T14:54:26.984Z,84.92
2022-11-14T14:57:42.955Z,85.23
2022-11-14T15:00:59.808Z,85.62
2022-11-14T15:04:16.163Z,85.46
2022-11-14T15:07:31.665Z,85.65
2022-11-14T15:10:46.979Z,85.63
2022-11-14T15:14:02.923Z,86.16
2022-11-14T15:17:18.861Z,87.01
2022-11-14T15:20:34.631Z,87.18
2022-11-14T15:24:01.218Z,86.88
2022-11-14T15:27:18.184Z,86.12
2022-11-14T15:30:37.262Z,84.53
2022-11-14T15:34:04.739Z,83.58
2022-11-14T15:37:21.540Z,84.40
2022-11-14T15:40:39.461Z,85.03
2022-11-14T15:44:01.904Z,84.48
2022-11-14T15:47:40.066Z,83.14
2022-11-14T15:50:55.410Z,83.62
2022-11-14T15:54:31.274Z,84.52
2022-11-14T15:57:52.022Z,85.17
2022-11-14T16:01:23.311Z,87.10
2022-11-14T16:04:44.380Z,88.05
2022-11-14T16:08:02.530Z,89.07
2022-11-14T16:11:17.591Z,88.65
2022-11-14T16:14:34.273Z,89.24
2022-11-14T16:17:50.404Z,89.22
2022-11-14T16:21:18.645Z,87.33
2022-11-14T16:24:34.434Z,86.40
2022-11-14T16:27:50.665Z,86.35
2022-11-14T16:31:11.833Z,87.09
2022-11-14T16:34:28.113Z,86.69
2022-11-14T16:37:44.250Z,86.88
2022-11-14T16:41:00.468Z,86.26
2022-11-14T16:44:17.098Z,86.51
2022-11-14T16:47:32.961Z,87.42
2022-11-14T16:50:52.859Z,87.73
2022-11-14T16:54:12.636Z,87.94
2022-11-14T16:57:29.298Z,88.58
2022-11-14T17:00:44.978Z,90.39
2022-11-14T17:04:01.232Z,94.51
2022-11-14T17:07:22.611Z,94.41
2022-11-14T17:10:45.533Z,94.73
2022-11-14T17:14:00.944Z,94.11
2022-11-14T17:17:16.810Z,94.24
2022-11-14T17:20:32.845Z,94.07
2022-11-14T17:23:54.362Z,94.56
2022-11-14T17:27:10.149Z,95.39
2022-11-14T17:30:25.967Z,95.39
2022-11-14T17:33:42.185Z,95.11
2022-11-14T17:36:57.960Z,94.91
2022-11-14T17:40:15.664Z,94.89
2022-11-14T17:43:39.149Z,96.30
2022-11-14T17:46:55.908Z,96.98
2022-11-14T17:50:11.997Z,97.76
2022-11-14T17:53:28.041Z,97.98
2022-11-14T17:56:48.564Z,97.04
2022-11-14T18:00:07.317Z,97.09
2022-11-14T18:03:23.019Z,97.21
2022-11-14T18:06:38.761Z,97.69
2022-11-14T18:09:54.877Z,97.26
2022-11-14T18:13:10.899Z,97.84
2022-11-14T18:16:44.545Z,97.52
2022-11-14T18:20:03.218Z,97.47
2022-11-14T18:23:19.078Z,98.13
2022-11-14T18:26:34.939Z,97.94
2022-11-14T18:29:50.921Z,98.52
2022-11-14T18:33:06.877Z,98.81
2022-11-14T18:36:23.039Z,98.80
2022-11-14T18:39:38.874Z,98.90
2022-11-14T18:42:55.077Z,98.80
2022-11-14T18:46:11.664Z,99.04
2022-11-14T18:49:28.448Z,98.19
2022-11-14T18:52:43.851Z,98.47
2022-11-14T18:56:03.772Z,98.41
2022-11-14T18:59:20.246Z,98.41
2022-11-14T19:02:36.184Z,97.39
2022-11-14T19:05:52.138Z,98.13
2022-11-14T19:09:11.627Z,96.78
2022-11-14T19:12:28.234Z,97.01
2022-11-14T19:15:43.880Z,97.21
2022-11-14T19:19:00.009Z,97.18
2022-11-14T19:22:20.326Z,97.33
2022-11-14T19:25:38.118Z,97.45
2022-11-14T19:28:54.307Z,97.10
2022-11-14T19:32:10.088Z,97.32
2022-11-14T19:35:26.096Z,98.00
2022-11-14T19:38:42.257Z,98.42
2022-11-14T19:41:57.819Z,97.90
2022-11-14T19:45:13.010Z,96.88
2022-11-14T19:48:28.949Z,96.17
2022-11-14T19:51:44.203Z,96.46
2022-11-14T19:54:59.862Z,96.18
2022-11-14T19:58:16.212Z,96.71
2022-11-14T20:01:32.001Z,97.24
2022-11-14T20:04:47.929Z,97.05
2022-11-14T20:08:04.097Z,96.71
2022-11-14T20:11:20.102Z,96.86
2022-11-14T20:14:36.200Z,97.02
2022-11-14T20:17:52.018Z,96.53
2022-11-14T20:21:10.963Z,95.98
2022-11-14T20:24:26.914Z,94.96
2022-11-14T20:27:43.187Z,95.46
2022-11-14T20:31:02.786Z,95.07
2022-11-14T20:34:17.976Z,94.09
2022-11-14T20:37:33.795Z,94.30
2022-11-14T20:40:54.924Z,94.43
2022-11-14T20:44:10.920Z,94.36
2022-11-14T20:47:27.543Z,93.51
2022-11-14T20:50:43.036Z,92.57
2022-11-14T20:53:59.130Z,92.18
2022-11-14T20:57:14.861Z,91.87
2022-11-14T21:00:30.058Z,91.07
2022-11-14T21:03:46.246Z,90.64
2022-11-14T21:07:02.188Z,91.85
2022-11-14T21:10:37.689Z,92.78
2022-11-14T21:13:59.164Z,93.47
2022-11-14T21:17:15.177Z,94.47
2022-11-14T21:20:31.074Z,94.89
2022-11-14T21:23:47.449Z,94.50
2022-11-14T21:27:03.887Z,93.67
2022-11-14T21:30:18.920Z,93.17
2022-11-14T21:33:35.328Z,93.04
2022-11-14T21:36:51.237Z,93.68
2022-11-14T21:40:07.721Z,93.39
2022-11-14T21:43:23.376Z,93.74
2022-11-14T21:46:38.882Z,93.23
2022-11-14T21:50:00.935Z,92.63
2022-11-14T21:53:17.077Z,93.71
2022-11-14T21:56:34.348Z,94.67
2022-11-14T21:59:50.234Z,96.12
2022-11-14T22:03:24.421Z,96.49
2022-11-14T22:06:43.754Z,95.99
2022-11-14T22:09:59.183Z,95.22
2022-11-14T22:13:15.406Z,95.15
2022-11-14T22:16:31.532Z,95.27
2022-11-14T22:19:47.066Z,95.74
2022-11-14T22:23:03.019Z,95.75
2022-11-14T22:26:19.177Z,95.97
2022-11-14T22:29:35.001Z,96.70
2022-11-14T22:32:51.133Z,96.83
2022-11-14T22:36:14.408Z,97.15
2022-11-14T22:39:30.017Z,96.92
2022-11-14T22:42:45.928Z,96.56
2022-11-14T22:46:02.052Z,96.83
2022-11-14T22:49:21.103Z,97.17
2022-11-14T22:52:37.386Z,97.14
2022-11-14T22:55:53.156Z,97.65
2022-11-14T22:59:09.463Z,97.74
2022-11-14T23:02:24.833Z,97.31
2022-11-14T23:05:39.985Z,97.94
2022-11-14T23:08:55.493Z,98.72
2022-11-14T23:12:12.279Z,98.90
2022-11-14T23:15:28.199Z,98.45
2022-11-14T23:18:44.354Z,98.59
2022-11-14T23:22:01.111Z,99.00
2022-11-14T23:25:17.163Z,99.15
2022-11-14T23:28:33.318Z,99.62
2022-11-14T23:31:49.273Z,98.95
2022-11-14T23:35:05.338Z,99.86
2022-11-14T23:38:21.158Z,100.00
2022-11-14T23:41:37.223Z,100.00
2022-11-14T23:44:53.048Z,100.00
2022-11-14T23:48:09.096Z,100.00
2022-11-14T23:51:25.073Z,100.00
2022-11-14T23:54:40.215Z,99.95
2022-11-14T23:57:56.159Z,100.00
